Terminal Aerodrome Forecast
Issued by NWS

Home | Current Version | Previous Version | Text Only | Print | Product List | Glossary On
Versions: 1 2 3 4 5 6 7 8 9 10 11 12
000
FTUS45 KABQ 221100
TAFFMN
TAF
KFMN 221137Z 2212/2312 08006KT P6SM SCT200
     FM221500 VRB04KT P6SM SCT200
     FM222000 26008KT P6SM SCT120
     FM230700 07005KT P6SM SKC=

USA.gov is the U.S. government's official web portal to all federal, state and local government web resources and services.